Shinglehouse, Pennsylvania
Current Conditions -  °F | °C
As of 9:16 AM on Monday 26 Jan 2015 (Local Time) from KELZ Reporting Station
Light Snow Light Snow  
Wind Chill: 10°   Ceiling: 2000
Heat Index: 10°   Visibility: 2.5mi
Dew Point:   Wind: 3mph
Humidity: 84%   Direction: 80°E
Pressure: 29.78"   Gusts: NA
Location:  41.96°N, 78.19°W
Report Text: KELZ 261416Z AUTO 08003KT 2 1/2SM -SN BR BKN020 OVC030 M12/M14 A2978 RMK AO2 P0000 T11221144
Loading
Personal Weather Stations






























Interactive Weather Map New forecast layout! Learn more

10-Day Weather Forecast

Advertisements
Track Severe Weather on mobile